SBPP/PMG METAR and TAF weather

Enter ICAO airport designator
Station Type Date Time Source
SBPP METAR 2021/09/20 00:40 UTC NOAA

SBPP 200040Z 33002KT CAVOK 29/13 Q1012


Station Type Date Time Source
SBPP Decoded METAR 2021/09/20 00:40 UTC NOAA

Ponta Pora Intl , Brazil (SBPP) 22-33S 055-42W
Sep 19, 2021 - 08:40 PM EDT / 2021.09.20 0040 UTC
Wind: from the NNW (330 degrees) at 2 MPH (2 KT):0
Visibility: greater than 7 mile(s):0
Temperature: 84 F (29 C)
Dew Point: 55 F (13 C)
Relative Humidity: 37%
Pressure (altimeter): 29.88 in. Hg (1012 hPa)
ob: SBPP 200040Z 33002KT CAVOK 29/13 Q1012
cycle: 0

Station Type Date Time Source
SBPP TAF 2021/09/20 06:18 UTC NOAA

TAF SBPP 200200Z 2006/2106 03008KT CAVOK TN25/2010Z TX38/2018Z
BECMG 2013/2015 35008KT
BECMG 2022/2024 00000KT
RMK PGL

Example: see airport list